sensor_id;sensor_type;location;lat;lon;timestamp;pressure;altitude;pressure_sealevel;temperature;humidity
67109;BME280;54027;50.786;7.058;2023-03-24T00:01:01;99737.38;;;14.04;73.38
67109;BME280;54027;50.786;7.058;2023-03-24T00:03:28;99737.38;;;14.04;73.36
67109;BME280;54027;50.786;7.058;2023-03-24T00:05:59;99739.09;;;14.05;73.30
67109;BME280;54027;50.786;7.058;2023-03-24T00:08:31;99729.44;;;14.08;73.17
67109;BME280;54027;50.786;7.058;2023-03-24T00:11:00;99727.69;;;14.09;73.07
67109;BME280;54027;50.786;7.058;2023-03-24T00:13:28;99711.16;;;14.10;73.29
67109;BME280;54027;50.786;7.058;2023-03-24T00:15:53;99704.22;;;14.10;73.38
67109;BME280;54027;50.786;7.058;2023-03-24T00:18:19;99704.19;;;14.12;73.12
67109;BME280;54027;50.786;7.058;2023-03-24T00:20:47;99701.59;;;14.12;73.45
67109;BME280;54027;50.786;7.058;2023-03-24T00:23:13;99705.16;;;14.09;73.63
67109;BME280;54027;50.786;7.058;2023-03-24T00:25:40;99689.44;;;14.13;73.25
67109;BME280;54027;50.786;7.058;2023-03-24T00:28:05;99692.94;;;14.11;73.87
67109;BME280;54027;50.786;7.058;2023-03-24T00:30:32;99688.63;;;14.10;73.84
67109;BME280;54027;50.786;7.058;2023-03-24T00:32:59;99682.53;;;14.11;73.54
67109;BME280;54027;50.786;7.058;2023-03-24T00:35:26;99683.44;;;14.10;74.17
67109;BME280;54027;50.786;7.058;2023-03-24T00:37:52;99682.41;;;14.15;73.55
67109;BME280;54027;50.786;7.058;2023-03-24T00:40:19;99673.66;;;14.17;73.64
67109;BME280;54027;50.786;7.058;2023-03-24T00:42:46;99671.94;;;14.16;74.00
67109;BME280;54027;50.786;7.058;2023-03-24T00:45:15;99664.97;;;14.18;73.70
67109;BME280;54027;50.786;7.058;2023-03-24T00:47:42;99669.94;;;14.23;73.99
67109;BME280;54027;50.786;7.058;2023-03-24T00:50:13;99661.91;;;14.29;73.63
67109;BME280;54027;50.786;7.058;2023-03-24T00:52:39;99661.00;;;14.30;73.44
67109;BME280;54027;50.786;7.058;2023-03-24T00:55:10;99660.06;;;14.31;73.87
67109;BME280;54027;50.786;7.058;2023-03-24T00:57:38;99655.81;;;14.30;73.72
67109;BME280;54027;50.786;7.058;2023-03-24T01:00:07;99655.59;;;14.34;73.42
67109;BME280;54027;50.786;7.058;2023-03-24T01:02:40;99660.81;;;14.34;73.59
67109;BME280;54027;50.786;7.058;2023-03-24T01:05:08;99658.34;;;14.31;74.41
67109;BME280;54027;50.786;7.058;2023-03-24T01:07:33;99660.06;;;14.31;74.27
67109;BME280;54027;50.786;7.058;2023-03-24T01:09:59;99661.91;;;14.29;74.29
67109;BME280;54027;50.786;7.058;2023-03-24T01:12:35;99649.69;;;14.31;74.42
67109;BME280;54027;50.786;7.058;2023-03-24T01:15:04;99650.63;;;14.30;74.41
67109;BME280;54027;50.786;7.058;2023-03-24T01:17:30;99650.63;;;14.30;74.61
67109;BME280;54027;50.786;7.058;2023-03-24T01:19:56;99661.97;;;14.27;74.89
67109;BME280;54027;50.786;7.058;2023-03-24T01:22:28;99649.88;;;14.26;74.56
67109;BME280;54027;50.786;7.058;2023-03-24T01:24:55;99650.88;;;14.24;74.90
67109;BME280;54027;50.786;7.058;2023-03-24T01:27:21;99654.44;;;14.21;74.99
67109;BME280;54027;50.786;7.058;2023-03-24T01:29:47;99652.81;;;14.19;75.39
67109;BME280;54027;50.786;7.058;2023-03-24T01:32:12;99647.66;;;14.17;75.41
67109;BME280;54027;50.786;7.058;2023-03-24T01:34:38;99647.75;;;14.16;75.43
67109;BME280;54027;50.786;7.058;2023-03-24T01:37:03;99636.28;;;14.20;75.12
67109;BME280;54027;50.786;7.058;2023-03-24T01:39:29;99637.09;;;14.22;74.94
67109;BME280;54027;50.786;7.058;2023-03-24T01:41:55;99632.84;;;14.19;75.29
67109;BME280;54027;50.786;7.058;2023-03-24T01:46:49;99622.31;;;14.22;75.21
67109;BME280;54027;50.786;7.058;2023-03-24T01:49:15;99617.13;;;14.22;75.10
67109;BME280;54027;50.786;7.058;2023-03-24T01:51:43;99619.72;;;14.22;75.20
67109;BME280;54027;50.786;7.058;2023-03-24T01:54:40;99615.38;;;14.23;75.29
67109;BME280;54027;50.786;7.058;2023-03-24T01:57:29;99605.91;;;14.22;75.82
67109;BME280;54027;50.786;7.058;2023-03-24T01:59:58;99602.50;;;14.20;75.71
67109;BME280;54027;50.786;7.058;2023-03-24T02:02:26;99596.19;;;14.25;75.66
67109;BME280;54027;50.786;7.058;2023-03-24T02:04:56;99577.88;;;14.28;75.58
67109;BME280;54027;50.786;7.058;2023-03-24T02:07:39;99566.44;;;14.32;75.05
67109;BME280;54027;50.786;7.058;2023-03-24T02:10:10;99553.25;;;14.37;75.23
67109;BME280;54027;50.786;7.058;2023-03-24T02:12:38;99554.09;;;14.37;75.26
67109;BME280;54027;50.786;7.058;2023-03-24T02:15:05;99541.22;;;14.34;75.41
67109;BME280;54027;50.786;7.058;2023-03-24T02:32:17;99512.97;;;14.47;74.49
67109;BME280;54027;50.786;7.058;2023-03-24T02:38:03;99506.53;;;14.55;73.69
67109;BME280;54027;50.786;7.058;2023-03-24T02:45:38;99517.78;;;14.56;73.90
67109;BME280;54027;50.786;7.058;2023-03-24T02:50:41;99522.13;;;14.55;74.08
67109;BME280;54027;50.786;7.058;2023-03-24T02:53:19;99522.22;;;14.54;73.88
67109;BME280;54027;50.786;7.058;2023-03-24T02:56:10;99511.53;;;14.60;73.69
67109;BME280;54027;50.786;7.058;2023-03-24T02:58:46;99514.13;;;14.60;73.69
67109;BME280;54027;50.786;7.058;2023-03-24T03:01:19;99511.59;;;14.58;74.21
67109;BME280;54027;50.786;7.058;2023-03-24T03:03:58;99515.19;;;14.56;74.05
67109;BME280;54027;50.786;7.058;2023-03-24T03:06:28;99515.19;;;14.56;74.04
67109;BME280;54027;50.786;7.058;2023-03-24T03:08:57;99512.44;;;14.59;74.48
67109;BME280;54027;50.786;7.058;2023-03-24T03:11:25;99523.03;;;14.54;74.41
67109;BME280;54027;50.786;7.058;2023-03-24T03:13:58;99512.44;;;14.59;74.28
67109;BME280;54027;50.786;7.058;2023-03-24T03:16:32;99517.78;;;14.56;74.78
67109;BME280;54027;50.786;7.058;2023-03-24T03:19:07;99509.06;;;14.57;74.88
67109;BME280;54027;50.786;7.058;2023-03-24T03:21:40;99512.56;;;14.56;75.04
67109;BME280;54027;50.786;7.058;2023-03-24T03:24:13;99511.81;;;14.54;75.14
67109;BME280;54027;50.786;7.058;2023-03-24T03:26:41;99504.81;;;14.54;74.97
67109;BME280;54027;50.786;7.058;2023-03-24T03:29:19;99510.88;;;14.55;75.23
67109;BME280;54027;50.786;7.058;2023-03-24T03:31:54;99509.97;;;14.56;75.08
67109;BME280;54027;50.786;7.058;2023-03-24T03:34:39;99515.22;;;14.54;75.54
67109;BME280;54027;50.786;7.058;2023-03-24T03:40:03;99516.16;;;14.53;75.22
67109;BME280;54027;50.786;7.058;2023-03-24T03:42:30;99509.25;;;14.52;75.21
67109;BME280;54027;50.786;7.058;2023-03-24T03:44:56;99511.22;;;14.47;75.78
67109;BME280;54027;50.786;7.058;2023-03-24T03:47:22;99507.78;;;14.47;75.73
67109;BME280;54027;50.786;7.058;2023-03-24T03:49:48;99513.97;;;14.44;75.67
67109;BME280;54027;50.786;7.058;2023-03-24T03:52:14;99503.34;;;14.49;75.27
67109;BME280;54027;50.786;7.058;2023-03-24T03:54:41;99514.69;;;14.48;75.64
67109;BME280;54027;50.786;7.058;2023-03-24T03:57:08;99504.16;;;14.51;75.43
67109;BME280;54027;50.786;7.058;2023-03-24T03:59:37;99511.94;;;14.51;75.38
67109;BME280;54027;50.786;7.058;2023-03-24T04:17:26;99506.94;;;14.46;75.47
67109;BME280;54027;50.786;7.058;2023-03-24T04:23:07;99499.63;;;14.54;74.78
67109;BME280;54027;50.786;7.058;2023-03-24T04:25:54;99507.69;;;14.48;75.27
67109;BME280;54027;50.786;7.058;2023-03-24T04:28:39;99516.22;;;14.52;75.11
67109;BME280;54027;50.786;7.058;2023-03-24T04:31:25;99516.78;;;14.58;74.71
67109;BME280;54027;50.786;7.058;2023-03-24T04:33:56;99514.97;;;14.60;74.33
67109;BME280;54027;50.786;7.058;2023-03-24T04:39:17;99507.72;;;14.67;74.01
67109;BME280;54027;50.786;7.058;2023-03-24T04:41:50;99507.47;;;14.73;73.57
67109;BME280;54027;50.786;7.058;2023-03-24T04:44:16;99509.22;;;14.73;73.44
67109;BME280;54027;50.786;7.058;2023-03-24T04:46:47;99502.97;;;14.77;73.22
67109;BME280;54027;50.786;7.058;2023-03-24T04:49:13;99506.34;;;14.79;72.46
67109;BME280;54027;50.786;7.058;2023-03-24T04:51:39;99508.59;;;14.86;72.24
67109;BME280;54027;50.786;7.058;2023-03-24T04:54:04;99498.91;;;14.90;72.16
67109;BME280;54027;50.786;7.058;2023-03-24T04:56:54;99513.66;;;14.89;72.20
67109;BME280;54027;50.786;7.058;2023-03-24T04:59:22;99527.56;;;14.88;72.77
67109;BME280;54027;50.786;7.058;2023-03-24T05:01:48;99519.00;;;14.86;72.08
67109;BME280;54027;50.786;7.058;2023-03-24T05:04:18;99529.31;;;14.88;71.88
67109;BME280;54027;50.786;7.058;2023-03-24T05:06:43;99532.00;;;14.86;71.69
67109;BME280;54027;50.786;7.058;2023-03-24T05:09:11;99537.22;;;14.86;72.21
67109;BME280;54027;50.786;7.058;2023-03-24T05:11:37;99542.28;;;14.89;71.68
67109;BME280;54027;50.786;7.058;2023-03-24T05:14:02;99587.09;;;14.96;71.33
67109;BME280;54027;50.786;7.058;2023-03-24T05:16:27;99642.97;;;14.67;76.40
67109;BME280;54027;50.786;7.058;2023-03-24T05:18:53;99638.41;;;14.10;77.65
67109;BME280;54027;50.786;7.058;2023-03-24T05:21:18;99652.84;;;13.52;81.12
67109;BME280;54027;50.786;7.058;2023-03-24T05:23:44;99638.88;;;13.10;83.09
67109;BME280;54027;50.786;7.058;2023-03-24T05:26:10;99640.88;;;12.77;83.26
67109;BME280;54027;50.786;7.058;2023-03-24T05:28:35;99646.81;;;12.56;82.16
67109;BME280;54027;50.786;7.058;2023-03-24T05:31:01;99656.06;;;12.38;82.73
67109;BME280;54027;50.786;7.058;2023-03-24T05:33:26;99662.56;;;12.25;83.06
67109;BME280;54027;50.786;7.058;2023-03-24T05:35:52;99656.72;;;12.18;82.10
67109;BME280;54027;50.786;7.058;2023-03-24T05:38:17;99661.22;;;12.13;82.07
67109;BME280;54027;50.786;7.058;2023-03-24T05:40:43;99659.50;;;12.12;80.97
67109;BME280;54027;50.786;7.058;2023-03-24T05:43:08;99641.75;;;12.26;79.47
67109;BME280;54027;50.786;7.058;2023-03-24T05:45:36;99646.53;;;12.14;80.46
67109;BME280;54027;50.786;7.058;2023-03-24T05:48:02;99646.56;;;12.12;79.93
67109;BME280;54027;50.786;7.058;2023-03-24T05:50:27;99650.50;;;12.24;78.95
67109;BME280;54027;50.786;7.058;2023-03-24T05:52:53;99661.72;;;12.23;79.74
67109;BME280;54027;50.786;7.058;2023-03-24T05:55:19;99664.97;;;12.29;79.05
67109;BME280;54027;50.786;7.058;2023-03-24T05:57:46;99677.09;;;12.29;79.14
67109;BME280;54027;50.786;7.058;2023-03-24T06:00:12;99681.84;;;12.42;78.29
67109;BME280;54027;50.786;7.058;2023-03-24T06:02:44;99687.81;;;12.44;79.04
67109;BME280;54027;50.786;7.058;2023-03-24T06:05:09;99690.34;;;12.46;79.39
67109;BME280;54027;50.786;7.058;2023-03-24T06:07:36;99702.41;;;12.47;79.81
67109;BME280;54027;50.786;7.058;2023-03-24T06:10:03;99716.09;;;12.51;79.92
67109;BME280;54027;50.786;7.058;2023-03-24T06:12:29;99714.38;;;12.51;79.87
67109;BME280;54027;50.786;7.058;2023-03-24T06:14:55;99730.56;;;12.58;79.47
67109;BME280;54027;50.786;7.058;2023-03-24T06:17:22;99734.91;;;12.57;80.44
67109;BME280;54027;50.786;7.058;2023-03-24T06:19:49;99731.38;;;12.60;80.34
67109;BME280;54027;50.786;7.058;2023-03-24T06:22:16;99726.94;;;12.63;80.68
67109;BME280;54027;50.786;7.058;2023-03-24T06:24:42;99732.91;;;12.65;80.78
67109;BME280;54027;50.786;7.058;2023-03-24T06:27:08;99736.25;;;12.69;80.78
67109;BME280;54027;50.786;7.058;2023-03-24T06:29:34;99733.56;;;12.72;80.45
67109;BME280;54027;50.786;7.058;2023-03-24T06:32:00;99730.84;;;12.75;79.88
67109;BME280;54027;50.786;7.058;2023-03-24T06:34:26;99735.09;;;12.77;79.63
67109;BME280;54027;50.786;7.058;2023-03-24T06:36:54;99745.47;;;12.77;79.92
67109;BME280;54027;50.786;7.058;2023-03-24T06:39:20;99755.69;;;12.82;79.45
67109;BME280;54027;50.786;7.058;2023-03-24T06:41:45;99769.19;;;12.91;79.58
67109;BME280;54027;50.786;7.058;2023-03-24T06:44:11;99771.34;;;13.05;78.13
67109;BME280;54027;50.786;7.058;2023-03-24T06:46:37;99782.31;;;13.13;78.19
67109;BME280;54027;50.786;7.058;2023-03-24T06:49:03;99785.78;;;13.12;77.25
67109;BME280;54027;50.786;7.058;2023-03-24T06:51:28;99787.72;;;13.07;77.32
67109;BME280;54027;50.786;7.058;2023-03-24T06:53:55;99785.31;;;13.01;76.98
67109;BME280;54027;50.786;7.058;2023-03-24T06:56:20;99800.16;;;12.96;77.77
67109;BME280;54027;50.786;7.058;2023-03-24T06:58:46;99790.69;;;12.95;77.45
67109;BME280;54027;50.786;7.058;2023-03-24T07:01:12;99781.19;;;12.94;77.30
67109;BME280;54027;50.786;7.058;2023-03-24T07:03:38;99784.81;;;12.90;77.37
67109;BME280;54027;50.786;7.058;2023-03-24T07:06:05;99796.13;;;12.87;77.08
67109;BME280;54027;50.786;7.058;2023-03-24T07:08:31;99795.47;;;12.81;77.10
67109;BME280;54027;50.786;7.058;2023-03-24T07:10:58;99799.81;;;12.80;77.28
67109;BME280;54027;50.786;7.058;2023-03-24T07:13:23;99797.22;;;12.80;76.38
67109;BME280;54027;50.786;7.058;2023-03-24T07:15:48;99817.22;;;12.77;76.52
67109;BME280;54027;50.786;7.058;2023-03-24T07:18:14;99821.72;;;12.72;76.59
67109;BME280;54027;50.786;7.058;2023-03-24T07:20:40;99802.78;;;12.70;76.75
67109;BME280;54027;50.786;7.058;2023-03-24T07:23:05;99820.94;;;12.68;76.79
67109;BME280;54027;50.786;7.058;2023-03-24T07:25:31;99824.50;;;12.66;76.40
67109;BME280;54027;50.786;7.058;2023-03-24T07:27:56;99835.03;;;12.61;76.49
67109;BME280;54027;50.786;7.058;2023-03-24T07:30:22;99854.06;;;12.60;76.94
67109;BME280;54027;50.786;7.058;2023-03-24T07:32:48;99855.75;;;12.61;77.42
67109;BME280;54027;50.786;7.058;2023-03-24T07:35:15;99855.78;;;12.60;77.23
67109;BME280;54027;50.786;7.058;2023-03-24T07:37:41;99856.84;;;12.54;77.33
67109;BME280;54027;50.786;7.058;2023-03-24T07:40:08;99857.78;;;12.52;77.70
67109;BME280;54027;50.786;7.058;2023-03-24T07:42:37;99862.13;;;12.51;77.83
67109;BME280;54027;50.786;7.058;2023-03-24T07:45:04;99865.75;;;12.45;76.38
67109;BME280;54027;50.786;7.058;2023-03-24T07:47:29;99857.97;;;12.45;75.43
67109;BME280;54027;50.786;7.058;2023-03-24T07:49:55;99853.47;;;12.51;74.15
67109;BME280;54027;50.786;7.058;2023-03-24T07:52:21;99837.75;;;12.57;72.62
67109;BME280;54027;50.786;7.058;2023-03-24T07:54:46;99854.06;;;12.60;72.31
67109;BME280;54027;50.786;7.058;2023-03-24T07:57:12;99847.66;;;12.70;71.72
67109;BME280;54027;50.786;7.058;2023-03-24T07:59:37;99850.41;;;12.66;71.67
67109;BME280;54027;50.786;7.058;2023-03-24T08:02:03;99864.25;;;12.66;71.91
67109;BME280;54027;50.786;7.058;2023-03-24T08:04:28;99854.81;;;12.64;71.47
67109;BME280;54027;50.786;7.058;2023-03-24T08:06:53;99862.69;;;12.61;71.42
67109;BME280;54027;50.786;7.058;2023-03-24T08:09:19;99846.22;;;12.62;71.33
67109;BME280;54027;50.786;7.058;2023-03-24T08:11:45;99844.47;;;12.62;70.94
67109;BME280;54027;50.786;7.058;2023-03-24T08:14:11;99844.44;;;12.64;70.42
67109;BME280;54027;50.786;7.058;2023-03-24T08:16:36;99835.56;;;12.71;70.61
67109;BME280;54027;50.786;7.058;2023-03-24T08:19:03;99831.69;;;12.84;70.14
67109;BME280;54027;50.786;7.058;2023-03-24T08:21:28;99806.59;;;12.84;68.66
67109;BME280;54027;50.786;7.058;2023-03-24T08:23:54;99819.41;;;12.89;69.43
67109;BME280;54027;50.786;7.058;2023-03-24T08:26:19;99810.63;;;12.93;69.18
67109;BME280;54027;50.786;7.058;2023-03-24T08:28:46;99813.34;;;12.90;69.03
67109;BME280;54027;50.786;7.058;2023-03-24T08:31:13;99829.22;;;12.79;70.17
67109;BME280;54027;50.786;7.058;2023-03-24T08:33:39;99834.59;;;12.73;70.42
67109;BME280;54027;50.786;7.058;2023-03-24T08:36:04;99844.97;;;12.73;70.70
67109;BME280;54027;50.786;7.058;2023-03-24T08:38:30;99845.41;;;12.87;70.77
67109;BME280;54027;50.786;7.058;2023-03-24T08:41:01;99818.22;;;12.99;69.04
67109;BME280;54027;50.786;7.058;2023-03-24T08:43:31;99806.72;;;13.08;68.65
67109;BME280;54027;50.786;7.058;2023-03-24T08:45:58;99819.41;;;13.15;69.15
67109;BME280;54027;50.786;7.058;2023-03-24T08:48:24;99835.81;;;13.17;69.08
67109;BME280;54027;50.786;7.058;2023-03-24T08:50:50;99824.59;;;13.15;68.78
67109;BME280;54027;50.786;7.058;2023-03-24T08:53:16;99829.69;;;13.18;68.83
67109;BME280;54027;50.786;7.058;2023-03-24T08:55:42;99846.66;;;13.28;69.76
67109;BME280;54027;50.786;7.058;2023-03-24T08:58:15;99841.19;;;13.36;68.97
67109;BME280;54027;50.786;7.058;2023-03-24T09:00:42;99832.47;;;13.38;68.57
67109;BME280;54027;50.786;7.058;2023-03-24T09:03:11;99840.78;;;13.48;68.88
67109;BME280;54027;50.786;7.058;2023-03-24T09:05:37;99820.19;;;13.43;67.38
67109;BME280;54027;50.786;7.058;2023-03-24T09:08:02;99840.84;;;13.46;67.98
67109;BME280;54027;50.786;7.058;2023-03-24T09:10:28;99824.97;;;13.54;67.23
67109;BME280;54027;50.786;7.058;2023-03-24T09:12:53;99835.38;;;13.54;67.54
67109;BME280;54027;50.786;7.058;2023-03-24T09:15:19;99826.72;;;13.78;66.52
67109;BME280;54027;50.786;7.058;2023-03-24T09:17:44;99788.03;;;13.94;64.53
67109;BME280;54027;50.786;7.058;2023-03-24T09:20:12;99756.88;;;14.16;63.17
67109;BME280;54027;50.786;7.058;2023-03-24T09:22:39;99737.72;;;14.61;61.92
67109;BME280;54027;50.786;7.058;2023-03-24T09:25:06;99704.50;;;14.88;59.60
67109;BME280;54027;50.786;7.058;2023-03-24T09:27:32;99722.56;;;15.11;60.47
67109;BME280;54027;50.786;7.058;2023-03-24T09:29:57;99695.19;;;15.42;58.87
67109;BME280;54027;50.786;7.058;2023-03-24T09:32:22;99681.03;;;15.47;57.04
67109;BME280;54027;50.786;7.058;2023-03-24T09:34:48;99661.31;;;15.23;56.24
67109;BME280;54027;50.786;7.058;2023-03-24T09:37:13;99666.59;;;14.83;55.43
67109;BME280;54027;50.786;7.058;2023-03-24T09:39:38;99700.31;;;14.64;57.71
67109;BME280;54027;50.786;7.058;2023-03-24T09:42:05;99700.09;;;14.48;57.14
67109;BME280;54027;50.786;7.058;2023-03-24T09:44:42;99700.03;;;14.28;56.80
67109;BME280;54027;50.786;7.058;2023-03-24T09:47:25;99722.00;;;14.21;57.77
67109;BME280;54027;50.786;7.058;2023-03-24T09:49:52;99701.88;;;14.26;56.63
67109;BME280;54027;50.786;7.058;2023-03-24T09:52:24;99732.25;;;14.47;58.06
67109;BME280;54027;50.786;7.058;2023-03-24T09:54:56;99708.47;;;14.56;56.99
67109;BME280;54027;50.786;7.058;2023-03-24T09:57:33;99681.41;;;14.60;55.64
67109;BME280;54027;50.786;7.058;2023-03-24T10:00:14;99665.16;;;14.76;54.56
67109;BME280;54027;50.786;7.058;2023-03-24T10:02:40;99663.22;;;14.81;54.61
67109;BME280;54027;50.786;7.058;2023-03-24T10:05:14;99678.44;;;14.90;55.14
67109;BME280;54027;50.786;7.058;2023-03-24T10:07:49;99700.47;;;15.01;55.37
67109;BME280;54027;50.786;7.058;2023-03-24T10:16:06;99661.13;;;15.28;52.66
67109;BME280;54027;50.786;7.058;2023-03-24T10:18:41;99677.50;;;15.30;53.81
67109;BME280;54027;50.786;7.058;2023-03-24T10:21:29;99642.91;;;15.46;50.69
67109;BME280;54027;50.786;7.058;2023-03-24T10:31:50;99643.69;;;15.67;49.66
67109;BME280;54027;50.786;7.058;2023-03-24T10:34:17;99645.63;;;15.62;49.52
67109;BME280;54027;50.786;7.058;2023-03-24T10:36:43;99654.53;;;15.58;50.45
67109;BME280;54027;50.786;7.058;2023-03-24T10:39:14;99689.81;;;15.84;51.62
67109;BME280;54027;50.786;7.058;2023-03-24T10:41:41;99672.34;;;16.03;50.35
67109;BME280;54027;50.786;7.058;2023-03-24T10:44:07;99647.63;;;16.11;49.62
67109;BME280;54027;50.786;7.058;2023-03-24T10:46:43;99655.97;;;16.18;49.83
67109;BME280;54027;50.786;7.058;2023-03-24T10:51:47;99646.66;;;16.48;48.95
67109;BME280;54027;50.786;7.058;2023-03-24T10:54:23;99654.50;;;16.82;48.64
67109;BME280;54027;50.786;7.058;2023-03-24T10:59:34;99647.03;;;16.58;47.28
67109;BME280;54027;50.786;7.058;2023-03-24T11:04:39;99649.72;;;16.56;47.19
67109;BME280;54027;50.786;7.058;2023-03-24T11:09:44;99671.72;;;17.02;47.79
67109;BME280;54027;50.786;7.058;2023-03-24T11:12:25;99656.16;;;17.01;47.24
67109;BME280;54027;50.786;7.058;2023-03-24T11:14:51;99661.34;;;17.33;47.40
67109;BME280;54027;50.786;7.058;2023-03-24T11:17:25;99630.44;;;17.41;45.91
67109;BME280;54027;50.786;7.058;2023-03-24T11:19:56;99631.38;;;17.40;44.63
67109;BME280;54027;50.786;7.058;2023-03-24T11:22:22;99659.81;;;17.14;46.60
67109;BME280;54027;50.786;7.058;2023-03-24T11:24:51;99672.38;;;16.90;46.80
67109;BME280;54027;50.786;7.058;2023-03-24T11:27:19;99689.19;;;16.84;47.46
67109;BME280;54027;50.786;7.058;2023-03-24T11:29:49;99678.34;;;16.92;47.01
67109;BME280;54027;50.786;7.058;2023-03-24T11:32:25;99657.41;;;17.26;45.72
67109;BME280;54027;50.786;7.058;2023-03-24T11:35:07;99626.13;;;17.25;44.22
67109;BME280;54027;50.786;7.058;2023-03-24T11:37:36;99627.81;;;17.73;43.71
67109;BME280;54027;50.786;7.058;2023-03-24T11:42:42;99624.38;;;18.04;44.10
67109;BME280;54027;50.786;7.058;2023-03-24T11:47:53;99638.09;;;17.60;43.98
67109;BME280;54027;50.786;7.058;2023-03-24T11:50:28;99635.50;;;17.60;44.17
67109;BME280;54027;50.786;7.058;2023-03-24T11:55:33;99628.44;;;17.62;44.01
67109;BME280;54027;50.786;7.058;2023-03-24T11:58:30;99619.16;;;17.41;43.31
67109;BME280;54027;50.786;7.058;2023-03-24T12:01:10;99595.75;;;17.86;42.52
67109;BME280;54027;50.786;7.058;2023-03-24T12:04:19;99595.09;;;18.13;42.72
67109;BME280;54027;50.786;7.058;2023-03-24T12:21:11;99586.41;;;18.12;41.05
67109;BME280;54027;50.786;7.058;2023-03-24T12:23:57;99626.44;;;18.28;41.66
67109;BME280;54027;50.786;7.058;2023-03-24T12:26:31;99587.00;;;18.75;40.49
67109;BME280;54027;50.786;7.058;2023-03-24T12:32:15;99569.63;;;18.88;39.71
67109;BME280;54027;50.786;7.058;2023-03-24T12:40:52;99573.13;;;19.30;38.74
67109;BME280;54027;50.786;7.058;2023-03-24T12:46:47;99596.56;;;18.46;39.08
67109;BME280;54027;50.786;7.058;2023-03-24T12:51:58;99598.53;;;18.43;39.26
67109;BME280;54027;50.786;7.058;2023-03-24T12:54:56;99611.88;;;18.09;39.51
67109;BME280;54027;50.786;7.058;2023-03-24T12:57:31;99624.72;;;17.97;40.48
67109;BME280;54027;50.786;7.058;2023-03-24T13:00:08;99626.84;;;17.91;40.59
67109;BME280;54027;50.786;7.058;2023-03-24T13:02:59;99627.03;;;18.18;40.05
67109;BME280;54027;50.786;7.058;2023-03-24T13:05:42;99617.31;;;18.49;40.91
67109;BME280;54027;50.786;7.058;2023-03-24T13:08:13;99570.44;;;18.61;38.43
67109;BME280;54027;50.786;7.058;2023-03-24T13:10:42;99603.69;;;18.59;40.25
67109;BME280;54027;50.786;7.058;2023-03-24T13:13:19;99569.03;;;18.69;37.79
67109;BME280;54027;50.786;7.058;2023-03-24T13:15:59;99554.94;;;18.86;37.28
67109;BME280;54027;50.786;7.058;2023-03-24T13:18:58;99584.31;;;19.05;38.07
67109;BME280;54027;50.786;7.058;2023-03-24T13:21:26;99584.69;;;18.85;38.17
67109;BME280;54027;50.786;7.058;2023-03-24T13:24:01;99602.94;;;18.57;39.24
67109;BME280;54027;50.786;7.058;2023-03-24T13:26:52;99607.47;;;18.25;39.62
67109;BME280;54027;50.786;7.058;2023-03-24T13:32:13;99608.69;;;18.04;40.04
67109;BME280;54027;50.786;7.058;2023-03-24T13:34:48;99637.06;;;17.95;41.10
67109;BME280;54027;50.786;7.058;2023-03-24T13:37:25;99616.97;;;17.80;40.10
67109;BME280;54027;50.786;7.058;2023-03-24T13:39:57;99645.72;;;17.80;41.17
67109;BME280;54027;50.786;7.058;2023-03-24T13:42:30;99620.84;;;17.89;40.55
67109;BME280;54027;50.786;7.058;2023-03-24T13:44:58;99652.56;;;17.99;41.17
67109;BME280;54027;50.786;7.058;2023-03-24T13:47:25;99647.06;;;18.03;41.20
67109;BME280;54027;50.786;7.058;2023-03-24T13:49:58;99638.38;;;18.03;41.06
67109;BME280;54027;50.786;7.058;2023-03-24T13:55:02;99626.41;;;17.99;40.73
67109;BME280;54027;50.786;7.058;2023-03-24T13:57:32;99637.09;;;17.78;41.20
67109;BME280;54027;50.786;7.058;2023-03-24T14:02:46;99687.59;;;17.63;42.88
67109;BME280;54027;50.786;7.058;2023-03-24T14:10:58;99698.00;;;17.80;45.42
67109;BME280;54027;50.786;7.058;2023-03-24T14:13:34;99685.06;;;17.62;44.34
67109;BME280;54027;50.786;7.058;2023-03-24T14:19:20;99698.63;;;17.53;45.24
67109;BME280;54027;50.786;7.058;2023-03-24T14:21:57;99703.44;;;17.60;47.00
67109;BME280;54027;50.786;7.058;2023-03-24T14:24:28;99667.63;;;17.62;43.86
67109;BME280;54027;50.786;7.058;2023-03-24T14:26:54;99647.91;;;17.57;43.11
67109;BME280;54027;50.786;7.058;2023-03-24T14:32:04;99671.31;;;17.42;44.49
67109;BME280;54027;50.786;7.058;2023-03-24T14:34:30;99666.75;;;17.46;44.65
67109;BME280;54027;50.786;7.058;2023-03-24T14:37:00;99663.91;;;17.51;44.31
67109;BME280;54027;50.786;7.058;2023-03-24T14:42:25;99673.53;;;17.50;44.24
67109;BME280;54027;50.786;7.058;2023-03-24T14:44:54;99680.63;;;17.31;44.96
67109;BME280;54027;50.786;7.058;2023-03-24T14:47:24;99675.34;;;17.32;44.91
67109;BME280;54027;50.786;7.058;2023-03-24T14:49:52;99685.59;;;17.20;44.96
67109;BME280;54027;50.786;7.058;2023-03-24T14:52:22;99686.81;;;16.97;45.09
67109;BME280;54027;50.786;7.058;2023-03-24T14:55:06;99722.44;;;16.62;46.76
67109;BME280;54027;50.786;7.058;2023-03-24T14:57:43;99785.19;;;16.42;50.40
67109;BME280;54027;50.786;7.058;2023-03-24T15:05:42;99793.13;;;16.94;51.13
67109;BME280;54027;50.786;7.058;2023-03-24T15:08:14;99797.00;;;17.04;51.58
67109;BME280;54027;50.786;7.058;2023-03-24T15:11:00;99792.75;;;16.84;51.57
67109;BME280;54027;50.786;7.058;2023-03-24T15:13:38;99780.91;;;17.28;51.17
67109;BME280;54027;50.786;7.058;2023-03-24T15:16:34;99756.75;;;17.73;49.88
67109;BME280;54027;50.786;7.058;2023-03-24T15:19:19;99737.75;;;18.34;48.66
67109;BME280;54027;50.786;7.058;2023-03-24T15:21:47;99735.94;;;18.80;47.84
67109;BME280;54027;50.786;7.058;2023-03-24T15:26:52;99697.59;;;19.09;46.25
67109;BME280;54027;50.786;7.058;2023-03-24T15:29:18;99705.91;;;19.01;46.75
67109;BME280;54027;50.786;7.058;2023-03-24T15:31:44;99703.88;;;19.20;46.44
67109;BME280;54027;50.786;7.058;2023-03-24T15:34:50;99689.00;;;19.35;46.20
67109;BME280;54027;50.786;7.058;2023-03-24T15:39:54;99699.63;;;19.03;46.90
67109;BME280;54027;50.786;7.058;2023-03-24T15:42:22;99689.47;;;18.83;46.63